Time;durP1;ratioP1;P1;durP2;ratioP2;P2;SDS_P1;SDS_P2;PMS_P1;PMS_P2;Temp;Humidity;BMP_temperature;BMP_pressure;BME280_temperature;BME280_humidity;BME280_pressure;Samples;Min_cycle;Max_cycle;Signal;HPM_P1;HPM_P2
2022/12/24 00:00:33;;;;;;;23.95;16.63;;;10.40;99.90;;;;;;5016032;28;20484;-54
2022/12/24 00:02:59;;;;;;;26.90;16.63;;;10.50;99.90;;;;;;5016119;28;20079;-52
2022/12/24 00:05:25;;;;;;;27.60;16.65;;;;;;;;;;5016155;28;20033;-51
2022/12/24 00:07:51;;;;;;;25.77;16.38;;;10.30;99.90;;;;;;5016583;28;20026;-52
2022/12/24 00:10:17;;;;;;;134.70;73.55;;;10.40;99.90;;;;;;5016294;28;20359;-51
2022/12/24 00:12:43;;;;;;;93.85;52.88;;;9.90;99.90;;;;;;5016600;28;20034;-51
2022/12/24 00:15:09;;;;;;;127.97;74.13;;;10.30;99.90;;;;;;5014422;28;20468;-49
2022/12/24 00:17:35;;;;;;;80.63;45.35;;;10.10;99.90;;;;;;5014438;28;20038;-51
2022/12/24 00:20:01;;;;;;;103.90;55.05;;;10.20;99.90;;;;;;4997975;28;20100;-51
2022/12/24 00:22:27;;;;;;;86.90;49.53;;;10.20;99.90;;;;;;5016151;28;20025;-53
2022/12/24 00:24:53;;;;;;;52.40;31.75;;;;;;;;;;5016320;28;20539;-51
2022/12/24 00:27:18;;;;;;;43.45;28.58;;;9.70;99.90;;;;;;5015458;28;20413;-52
2022/12/24 00:29:45;;;;;;;40.45;26.77;;;;;;;;;;5015960;28;20037;-53
2022/12/24 00:32:11;;;;;;;37.83;25.45;;;;;;;;;;5016023;28;20026;-52
2022/12/24 00:34:36;;;;;;;28.23;17.90;;;8.80;99.90;;;;;;4997926;28;20034;-50
2022/12/24 00:37:03;;;;;;;20.85;13.23;;;8.50;99.90;;;;;;5015757;28;20049;-50
2022/12/24 00:39:29;;;;;;;34.60;21.80;;;8.40;99.90;;;;;;5015839;28;20112;-52
2022/12/24 00:41:55;;;;;;;20.65;12.48;;;8.00;99.90;;;;;;5015743;28;20030;-53
2022/12/24 00:44:21;;;;;;;18.67;10.82;;;;;;;;;;5015721;28;20461;-49
2022/12/24 00:46:47;;;;;;;14.50;9.73;;;;;;;;;;4997438;28;20140;-49
2022/12/24 00:49:13;;;;;;;21.10;12.80;;;7.60;99.90;;;;;;5015813;28;20026;-49
2022/12/24 00:51:39;;;;;;;14.23;8.65;;;8.10;99.90;;;;;;5015465;28;20170;-51
2022/12/24 00:54:06;;;;;;;22.08;14.60;;;7.90;99.90;;;;;;5015470;28;20094;-50
2022/12/24 00:56:32;;;;;;;23.15;15.10;;;8.10;99.90;;;;;;5015831;28;20083;-51
2022/12/24 00:58:57;;;;;;;22.05;15.63;;;8.10;99.90;;;;;;5015364;28;20026;-49
2022/12/24 01:01:24;;;;;;;21.92;15.00;;;8.50;99.90;;;;;;5015282;28;20389;-49
2022/12/24 01:03:50;;;;;;;19.58;12.65;;;8.40;99.90;;;;;;5015768;28;20026;-52
2022/12/24 01:06:20;;;;;;;18.13;12.13;;;8.60;99.90;;;;;;5015839;28;20029;-52
2022/12/24 01:08:49;;;;;;;16.73;10.75;;;8.60;99.90;;;;;;5015440;28;20022;-51
2022/12/24 01:11:15;;;;;;;17.52;10.82;;;8.30;99.90;;;;;;5013274;28;20127;-53
2022/12/24 01:13:41;;;;;;;13.50;9.00;;;;;;;;;;5015250;28;20069;-52
2022/12/24 01:16:18;;;;;;;16.95;10.48;;;8.70;99.90;;;;;;5015234;28;20026;-52
2022/12/24 01:18:44;;;;;;;126.50;46.22;;;8.40;99.90;;;;;;5015055;28;20021;-50
2022/12/24 01:21:10;;;;;;;17.83;11.43;;;8.50;99.90;;;;;;5014879;28;20030;-50
2022/12/24 01:23:36;;;;;;;13.50;10.27;;;8.70;99.90;;;;;;4997012;28;20037;-52
2022/12/24 01:26:03;;;;;;;15.48;10.60;;;8.70;99.90;;;;;;5015521;28;20038;-52
2022/12/24 01:28:30;;;;;;;16.15;11.52;;;9.20;99.90;;;;;;4980062;28;20046;-50
2022/12/24 01:30:55;;;;;;;17.08;10.73;;;8.60;99.90;;;;;;5012580;28;20038;-50
2022/12/24 01:33:21;;;;;;;14.23;9.55;;;8.90;99.90;;;;;;4963780;28;20042;-51
2022/12/24 01:35:47;;;;;;;16.83;10.35;;;9.20;99.90;;;;;;5012668;28;20485;-51
2022/12/24 01:38:13;;;;;;;12.65;9.90;;;9.30;99.90;;;;;;4962724;28;20088;-52
2022/12/24 01:43:27;;;;;;;16.25;10.57;;;9.20;99.90;;;;;;5012874;28;20497;-51
2022/12/24 01:46:00;;;;;;;14.02;10.30;;;9.10;99.90;;;;;;5012302;28;20065;-50
2022/12/24 01:48:32;;;;;;;14.55;10.18;;;9.10;99.90;;;;;;5012334;28;20061;-50
2022/12/24 01:51:01;;;;;;;12.07;9.32;;;;;;;;;;5012282;28;20036;-49
2022/12/24 01:53:29;;;;;;;15.85;11.05;;;9.40;99.90;;;;;;5012240;28;20034;-52
2022/12/24 01:55:56;;;;;;;18.40;12.13;;;9.60;99.90;;;;;;5012173;28;20026;-53
2022/12/24 01:58:25;;;;;;;19.48;12.13;;;9.70;99.90;;;;;;5012217;28;20037;-52
2022/12/24 02:00:50;;;;;;;22.88;14.95;;;9.90;99.90;;;;;;5014806;28;20026;-50
2022/12/24 02:03:17;;;;;;;30.35;18.10;;;9.90;99.90;;;;;;5014294;28;20474;-52
2022/12/24 02:05:50;;;;;;;28.35;17.75;;;9.80;99.90;;;;;;5029049;28;20042;-52
2022/12/24 02:08:17;;;;;;;31.98;19.85;;;10.00;99.90;;;;;;5014331;28;20081;-53
2022/12/24 02:10:47;;;;;;;30.63;20.08;;;10.00;99.90;;;;;;5014317;28;20513;-52
2022/12/24 02:13:16;;;;;;;31.17;19.63;;;10.20;99.90;;;;;;5014170;28;20049;-51
2022/12/24 02:15:51;;;;;;;27.65;18.58;;;10.30;99.90;;;;;;5014111;28;20044;-50
2022/12/24 02:18:16;;;;;;;28.40;18.98;;;10.20;99.90;;;;;;5243818;23;20400;-52
2022/12/24 02:20:59;;;;;;;27.60;17.13;;;10.20;99.90;;;;;;5014262;28;20025;-53
2022/12/24 02:23:32;;;;;;;27.48;18.38;;;10.00;99.90;;;;;;5014028;28;20100;-53
2022/12/24 02:26:35;;;;;;;35.63;20.63;;;9.80;99.90;;;;;;5013744;28;20044;-52
2022/12/24 02:29:06;;;;;;;28.27;18.88;;;9.60;99.90;;;;;;5014197;28;20096;-53
2022/12/24 02:31:54;;;;;;;27.75;17.58;;;9.70;99.90;;;;;;5013613;28;20034;-53
2022/12/24 02:34:22;;;;;;;26.52;18.20;;;9.90;99.90;;;;;;5013661;28;20362;-53
2022/12/24 02:36:56;;;;;;;25.10;17.40;;;10.00;99.90;;;;;;5013507;28;20416;-51
2022/12/24 02:39:45;;;;;;;36.30;23.63;;;10.10;99.90;;;;;;5013882;28;20033;-51
2022/12/24 02:42:14;;;;;;;39.80;25.67;;;10.00;99.90;;;;;;5013552;28;20366;-51
2022/12/24 02:44:49;;;;;;;41.88;25.67;;;9.80;99.90;;;;;;5013629;28;20040;-51
2022/12/24 02:47:17;;;;;;;39.85;24.63;;;9.80;99.90;;;;;;5027936;28;20065;-54
2022/12/24 02:49:44;;;;;;;58.63;32.80;;;9.70;99.90;;;;;;5013168;28;20095;-52
2022/12/24 02:52:31;;;;;;;62.80;37.00;;;9.60;99.90;;;;;;5013586;28;20034;-53
2022/12/24 02:55:00;;;;;;;65.28;38.95;;;9.50;99.90;;;;;;5013355;28;20030;-52
2022/12/24 02:57:42;;;;;;;64.82;38.33;;;9.50;99.90;;;;;;5013447;28;20101;-52
2022/12/24 03:00:11;;;;;;;;;;;9.70;99.90;;;;;;5013845;28;20111;-53
2022/12/24 03:02:57;;;;;;;77.63;46.90;;;9.80;99.90;;;;;;5011696;28;20261;-52
2022/12/24 03:05:39;;;;;;;76.88;46.92;;;9.70;99.90;;;;;;5012549;28;20053;-53
2022/12/24 03:08:10;;;;;;;107.57;61.38;;;9.50;99.90;;;;;;5013071;28;20049;-54
2022/12/24 03:10:50;;;;;;;93.95;58.05;;;9.30;99.90;;;;;;5013853;28;20080;-51
2022/12/24 03:13:18;;;;;;;97.53;59.83;;;9.30;99.90;;;;;;5013392;28;20074;-52
2022/12/24 03:15:45;;;;;;;98.82;58.55;;;9.40;99.90;;;;;;5013181;28;20049;-54
2022/12/24 03:18:15;;;;;;;101.82;59.00;;;9.00;99.90;;;;;;5012525;28;20493;-54
2022/12/24 03:20:45;;;;;;;83.88;51.55;;;9.00;99.90;;;;;;5013373;28;20025;-53
2022/12/24 03:23:12;;;;;;;78.80;47.17;;;8.90;99.90;;;;;;5013651;28;20028;-52
2022/12/24 03:25:41;;;;;;;77.60;46.28;;;8.70;99.90;;;;;;5013159;28;20026;-53
2022/12/24 03:28:09;;;;;;;99.50;53.17;;;8.60;99.90;;;;;;5012938;28;20021;-52
2022/12/24 03:30:35;;;;;;;81.95;49.80;;;;;;;;;;5013495;28;20076;-54
2022/12/24 03:33:00;;;;;;;60.40;41.25;;;8.70;99.90;;;;;;5013324;28;20050;-55
2022/12/24 03:35:26;;;;;;;57.03;38.15;;;8.90;99.90;;;;;;5013523;28;20037;-52
2022/12/24 03:37:52;;;;;;;45.95;31.38;;;9.00;99.90;;;;;;5013060;28;20026;-54
2022/12/24 03:40:18;;;;;;;43.03;30.25;;;8.90;99.90;;;;;;5013023;28;20026;-55
2022/12/24 03:42:43;;;;;;;43.30;28.40;;;8.70;99.90;;;;;;5012945;28;20473;-53
2022/12/24 03:45:09;;;;;;;35.80;26.77;;;8.70;99.90;;;;;;5013112;28;20088;-54
2022/12/24 03:47:35;;;;;;;37.30;24.00;;;8.60;99.90;;;;;;5012783;28;20033;-52
2022/12/24 03:50:01;;;;;;;33.88;23.70;;;8.90;99.90;;;;;;5012928;28;20026;-52
2022/12/24 03:52:27;;;;;;;32.95;24.48;;;;;;;;;;5012776;28;20034;-51
2022/12/24 03:54:53;;;;;;;33.90;22.73;;;;;;;;;;5010913;28;20125;-51
2022/12/24 03:57:19;;;;;;;26.35;15.05;;;9.00;99.90;;;;;;5010900;28;20100;-52
2022/12/24 03:59:45;;;;;;;24.52;13.63;;;8.60;99.90;;;;;;5012937;28;20022;-55
2022/12/24 04:02:10;;;;;;;19.58;12.05;;;8.30;99.90;;;;;;5015454;28;20026;-52
2022/12/24 04:04:36;;;;;;;21.95;15.25;;;8.00;99.90;;;;;;5016545;28;20108;-51
2022/12/24 04:07:03;;;;;;;24.95;16.70;;;8.00;99.90;;;;;;5016226;28;20476;-54
2022/12/24 04:09:29;;;;;;;24.60;17.02;;;8.10;99.90;;;;;;5016219;28;20031;-52
2022/12/24 04:11:54;;;;;;;23.42;17.02;;;8.30;99.90;;;;;;5014360;28;20041;-52
2022/12/24 04:14:20;;;;;;;21.83;14.57;;;8.30;99.90;;;;;;5014842;28;20030;-54
2022/12/24 04:16:46;;;;;;;19.15;14.55;;;8.40;99.90;;;;;;5015922;28;20080;-51
2022/12/24 04:19:11;;;;;;;20.25;13.93;;;8.50;99.90;;;;;;5015987;28;20109;-55
2022/12/24 04:21:37;;;;;;;19.00;13.23;;;8.60;99.90;;;;;;5016139;28;20053;-53
2022/12/24 04:24:03;;;;;;;22.25;13.85;;;8.50;99.90;;;;;;5030719;28;20069;-53
2022/12/24 04:26:29;;;;;;;18.55;12.65;;;8.50;99.90;;;;;;5031201;28;20439;-53
2022/12/24 04:28:54;;;;;;;16.30;12.40;;;8.50;99.90;;;;;;5015954;28;20037;-52
2022/12/24 04:31:20;;;;;;;20.70;13.75;;;8.40;99.90;;;;;;5015894;28;20036;-52
2022/12/24 04:33:46;;;;;;;19.23;12.63;;;8.40;99.90;;;;;;5016011;28;20022;-53
2022/12/24 04:36:17;;;;;;;18.33;11.98;;;8.50;99.90;;;;;;5016283;28;20409;-52
2022/12/24 04:38:45;;;;;;;15.68;11.88;;;8.50;99.90;;;;;;5015859;28;20044;-54
2022/12/24 04:41:13;;;;;;;15.93;11.63;;;8.60;99.90;;;;;;5030958;28;20034;-54
2022/12/24 04:43:39;;;;;;;16.23;11.43;;;8.80;99.90;;;;;;5015437;28;20029;-52
2022/12/24 04:46:06;;;;;;;15.45;11.07;;;8.80;99.90;;;;;;5030207;28;20038;-53
2022/12/24 04:48:32;;;;;;;12.57;9.00;;;8.90;99.90;;;;;;5015619;28;20026;-53
2022/12/24 04:51:01;;;;;;;12.05;8.38;;;8.90;99.90;;;;;;5015273;28;20026;-54
2022/12/24 04:53:27;;;;;;;14.23;10.57;;;9.10;99.90;;;;;;5015377;28;20061;-53
2022/12/24 04:55:52;;;;;;;13.75;10.40;;;9.20;99.90;;;;;;5015483;28;20057;-51
2022/12/24 04:58:18;;;;;;;15.40;10.13;;;9.30;99.90;;;;;;5015612;28;20034;-53
2022/12/24 05:00:44;;;;;;;17.80;11.15;;;9.30;99.90;;;;;;5015657;28;20025;-53
2022/12/24 05:03:09;;;;;;;14.00;9.98;;;9.40;99.90;;;;;;5013320;28;20092;-57
2022/12/24 05:05:35;;;;;;;14.75;9.65;;;9.50;99.90;;;;;;5015716;28;20435;-53
2022/12/24 05:08:01;;;;;;;14.30;9.68;;;9.60;99.90;;;;;;5015251;28;20022;-53
2022/12/24 05:10:26;;;;;;;12.68;9.05;;;9.60;99.90;;;;;;5015361;28;20022;-51
2022/12/24 05:12:52;;;;;;;12.30;8.90;;;9.60;99.90;;;;;;5014839;28;20477;-52
2022/12/24 05:15:18;;;;;;;13.15;8.60;;;;;;;;;;5015009;28;20053;-54
2022/12/24 05:17:44;;;;;;;13.98;8.43;;;9.50;99.90;;;;;;5014653;28;20485;-54
2022/12/24 05:20:10;;;;;;;14.20;8.35;;;9.20;99.90;;;;;;5015272;28;20030;-52
2022/12/24 05:28:04;;;;;;;11.85;7.63;;;;;;;;;;5015041;28;20029;-53
2022/12/24 05:30:30;;;;;;;14.57;6.07;;;;;;;;;;5014962;28;20036;-54
2022/12/24 05:32:56;;;;;;;8.32;5.97;;;;;;;;;;5014532;28;20040;-52
2022/12/24 05:35:22;;;;;;;9.57;6.05;;;;;;;;;;5014769;28;20030;-53
2022/12/24 05:37:48;;;;;;;6.43;5.05;;;;;;;;;;5014862;28;20033;-51
2022/12/24 05:40:14;;;;;;;7.88;5.93;;;;;;;;;;5014710;28;20062;-52
2022/12/24 05:42:40;;;;;;;6.95;4.65;;;;;;;;;;5014664;28;20038;-51
2022/12/24 05:45:06;;;;;;;8.27;4.68;;;;;;;;;;5014498;28;20026;-53
2022/12/24 05:47:32;;;;;;;11.55;6.45;;;9.90;99.90;;;;;;5014599;28;20458;-53
2022/12/24 05:49:58;;;;;;;10.85;7.35;;;9.80;99.90;;;;;;5014815;28;20025;-52
2022/12/24 05:52:23;;;;;;;26.55;14.77;;;9.80;99.90;;;;;;5014216;28;20435;-52
2022/12/24 05:54:49;;;;;;;16.23;12.55;;;9.80;99.90;;;;;;5014414;28;20121;-53
2022/12/24 05:57:15;;;;;;;14.77;11.48;;;10.00;99.90;;;;;;5014250;28;20087;-52
2022/12/24 05:59:41;;;;;;;16.80;12.20;;;;;;;;;;5014233;28;20022;-52
2022/12/24 06:02:07;;;;;;;8.95;5.95;;;10.60;99.90;;;;;;5014301;28;20444;-53
2022/12/24 06:04:33;;;;;;;9.25;5.45;;;;;;;;;;5014147;28;20026;-54
2022/12/24 06:06:59;;;;;;;7.75;5.90;;;10.80;99.90;;;;;;5013918;28;20018;-53
2022/12/24 06:09:24;;;;;;;20.98;10.90;;;10.90;99.90;;;;;;5012098;28;20172;-53
2022/12/24 06:11:50;;;;;;;20.38;10.85;;;10.80;99.90;;;;;;5028467;28;20046;-52
2022/12/24 06:14:15;;;;;;;35.58;18.02;;;10.90;99.90;;;;;;5014403;28;20022;-54
2022/12/24 06:16:41;;;;;;;43.10;22.50;;;11.00;99.90;;;;;;5013552;28;20092;-54
2022/12/24 06:19:07;;;;;;;18.13;10.52;;;11.10;99.90;;;;;;5013897;28;20034;-52
2022/12/24 06:21:33;;;;;;;25.10;14.27;;;11.10;99.90;;;;;;5013744;28;20068;-54
2022/12/24 06:23:59;;;;;;;15.20;9.75;;;11.30;99.90;;;;;;5028087;28;20124;-53
2022/12/24 06:26:25;;;;;;;10.27;7.40;;;;;;;;;;5028699;28;20038;-53
2022/12/24 06:28:51;;;;;;;12.45;7.20;;;11.50;99.90;;;;;;5013901;28;20021;-52
2022/12/24 06:31:19;;;;;;;12.23;9.65;;;11.40;99.90;;;;;;5011963;28;20042;-53
2022/12/24 06:33:45;;;;;;;10.88;8.10;;;11.60;99.90;;;;;;5013701;28;20030;-53
2022/12/24 06:36:17;;;;;;;11.30;8.43;;;11.60;99.90;;;;;;5028318;28;20550;-54
2022/12/24 06:38:43;;;;;;;11.55;8.05;;;11.60;99.90;;;;;;5013746;28;20030;-53
2022/12/24 06:41:09;;;;;;;11.70;8.43;;;11.50;99.90;;;;;;5013904;28;20373;-52
2022/12/24 06:43:35;;;;;;;14.05;8.73;;;11.40;99.90;;;;;;5014056;28;20044;-53
2022/12/24 06:46:01;;;;;;;28.05;20.23;;;11.30;99.90;;;;;;5013647;28;20033;-53
2022/12/24 06:48:27;;;;;;;61.90;22.20;;;11.40;99.90;;;;;;5013632;28;20496;-52
2022/12/24 06:50:53;;;;;;;16.27;14.55;;;11.50;99.90;;;;;;5013437;28;20034;-53
2022/12/24 06:53:19;;;;;;;20.25;14.70;;;11.50;99.90;;;;;;5013894;28;20038;-51
2022/12/24 06:55:44;;;;;;;32.72;26.23;;;11.50;99.90;;;;;;5013423;28;20498;-53
2022/12/24 06:58:10;;;;;;;25.83;15.60;;;11.50;99.90;;;;;;5013526;28;20477;-53
2022/12/24 07:00:36;;;;;;;20.17;14.48;;;11.60;99.90;;;;;;5028207;28;20109;-54
2022/12/24 07:03:02;;;;;;;26.95;18.08;;;11.70;99.90;;;;;;5013885;28;20030;-53
2022/12/24 07:05:28;;;;;;;250.50;208.65;;;11.70;99.90;;;;;;5013926;28;20026;-52
2022/12/24 07:07:54;;;;;;;18.48;13.15;;;11.70;99.90;;;;;;5013441;28;20113;-53
2022/12/24 07:10:20;;;;;;;25.42;16.58;;;11.40;99.90;;;;;;5013404;28;20061;-53
2022/12/24 07:12:47;;;;;;;23.35;18.17;;;11.50;99.90;;;;;;5013188;28;20083;-53
2022/12/24 07:15:14;;;;;;;54.80;28.33;;;11.50;99.90;;;;;;5013522;28;20029;-51
2022/12/24 07:17:40;;;;;;;68.82;35.17;;;11.50;99.90;;;;;;5012674;28;20413;-51
2022/12/24 07:20:07;;;;;;;131.27;51.83;;;11.50;99.90;;;;;;5013488;28;20033;-51
2022/12/24 07:22:33;;;;;;;154.38;56.30;;;11.60;99.90;;;;;;5013236;28;20030;-54
2022/12/24 07:24:59;;;;;;;90.50;40.20;;;11.50;99.90;;;;;;4995013;28;20041;-54
2022/12/24 07:27:25;;;;;;;69.00;36.35;;;11.50;99.90;;;;;;5011997;28;20045;-52
2022/12/24 07:29:50;;;;;;;95.32;50.75;;;11.60;99.90;;;;;;5013486;28;20030;-52
2022/12/24 07:32:19;;;;;;;32.22;21.48;;;11.50;99.90;;;;;;5013185;28;20061;-51
2022/12/24 07:34:45;;;;;;;39.58;28.23;;;11.50;99.90;;;;;;5013190;28;20505;-52
2022/12/24 07:37:10;;;;;;;86.43;55.00;;;11.40;99.90;;;;;;5016243;28;20022;-54
2022/12/24 07:39:36;;;;;;;79.93;53.88;;;11.50;99.90;;;;;;5016785;28;20504;-52
2022/12/24 07:42:04;;;;;;;59.45;39.90;;;11.60;99.90;;;;;;5016770;28;20026;-53
2022/12/24 07:44:30;;;;;;;60.40;43.45;;;11.40;99.90;;;;;;5017061;28;20060;-52
2022/12/24 07:46:56;;;;;;;89.18;60.78;;;11.50;99.90;;;;;;5016670;28;20540;-53
2022/12/24 07:49:21;;;;;;;92.05;60.92;;;11.70;99.90;;;;;;5017013;28;20037;-53
2022/12/24 07:51:47;;;;;;;84.93;56.17;;;11.60;99.90;;;;;;5016408;28;20030;-54
2022/12/24 07:54:14;;;;;;;88.45;60.15;;;11.60;99.90;;;;;;5016900;28;20076;-54
2022/12/24 07:56:39;;;;;;;110.70;72.75;;;11.60;99.90;;;;;;5016772;28;20182;-52
2022/12/24 07:59:05;;;;;;;79.97;54.00;;;11.70;99.90;;;;;;5031250;28;20045;-52
2022/12/24 08:01:31;;;;;;;87.13;57.85;;;11.80;99.90;;;;;;5016580;28;20430;-54
2022/12/24 08:03:56;;;;;;;83.13;58.88;;;11.70;99.90;;;;;;5016525;28;20061;-54
2022/12/24 08:06:23;;;;;;;92.68;65.28;;;11.40;99.90;;;;;;5031226;28;20065;-54
2022/12/24 08:08:49;;;;;;;90.75;64.03;;;11.60;99.90;;;;;;5016370;28;20061;-54
2022/12/24 08:11:14;;;;;;;110.68;67.90;;;11.60;99.90;;;;;;5016236;28;20032;-54
2022/12/24 08:13:40;;;;;;;93.93;63.08;;;11.50;99.90;;;;;;5016609;28;20044;-55
2022/12/24 08:16:06;;;;;;;152.40;90.53;;;11.30;99.90;;;;;;5016370;28;20026;-53
2022/12/24 08:18:32;;;;;;;73.38;50.40;;;11.10;99.90;;;;;;5013887;28;20467;-53
2022/12/24 08:20:58;;;;;;;75.50;49.20;;;10.90;99.90;;;;;;5014002;28;20034;-53
2022/12/24 08:23:24;;;;;;;47.10;32.90;;;11.10;99.90;;;;;;5014224;28;20481;-54
2022/12/24 08:25:50;;;;;;;41.25;30.55;;;11.00;99.90;;;;;;5013815;28;20602;-52
2022/12/24 08:28:18;;;;;;;32.60;24.20;;;11.00;99.90;;;;;;4997796;28;20073;-54
2022/12/24 08:30:46;;;;;;;32.85;24.65;;;11.60;99.90;;;;;;5013747;28;20029;-54
2022/12/24 08:33:12;;;;;;;32.80;27.92;;;11.30;99.90;;;;;;5013889;28;20045;-53
2022/12/24 08:35:38;;;;;;;43.63;29.67;;;;;;;;;;4997396;28;20029;-55
2022/12/24 08:38:03;;;;;;;33.67;25.17;;;11.80;99.90;;;;;;5013675;28;20057;-54
2022/12/24 08:40:29;;;;;;;28.90;22.80;;;11.70;99.90;;;;;;5013832;28;20026;-54
2022/12/24 08:42:55;;;;;;;22.00;17.05;;;11.50;99.90;;;;;;4980793;28;20076;-53
2022/12/24 08:45:21;;;;;;;25.40;15.75;;;11.30;99.90;;;;;;4997223;28;20148;-53
2022/12/24 08:47:47;;;;;;;35.15;27.20;;;11.30;99.90;;;;;;5012972;28;20424;-55
2022/12/24 08:50:13;;;;;;;54.10;37.03;;;11.20;99.90;;;;;;5015649;28;20042;-54
2022/12/24 08:52:39;;;;;;;44.28;33.35;;;11.30;99.90;;;;;;5015660;28;20448;-53
2022/12/24 08:55:05;;;;;;;42.53;33.92;;;11.50;99.90;;;;;;5030019;28;20515;-54
2022/12/24 08:57:34;;;;;;;45.28;34.90;;;11.70;99.90;;;;;;5015433;28;20030;-52
2022/12/24 09:00:00;;;;;;;90.88;56.38;;;12.10;99.90;;;;;;5015669;28;20480;-54
2022/12/24 09:02:26;;;;;;;95.95;52.33;;;12.50;99.90;;;;;;5015905;28;20064;-54
2022/12/24 09:04:52;;;;;;;82.25;47.03;;;;;;;;;;5015270;28;20029;-55
2022/12/24 09:07:18;;;;;;;86.55;44.05;;;13.00;99.90;;;;;;5015672;28;20033;-54
2022/12/24 09:09:44;;;;;;;80.32;43.88;;;;;;;;;;4997003;28;20034;-53
2022/12/24 09:12:10;;;;;;;50.50;32.50;;;13.50;99.90;;;;;;5015622;28;20057;-53
2022/12/24 09:14:36;;;;;;;32.45;23.60;;;13.40;99.90;;;;;;5015482;28;20477;-53
2022/12/24 09:17:01;;;;;;;29.25;18.85;;;13.50;99.90;;;;;;5014657;28;20042;-53
2022/12/24 09:19:27;;;;;;;25.25;19.98;;;13.50;99.90;;;;;;5014014;28;20128;-53
2022/12/24 09:21:53;;;;;;;26.67;17.67;;;;;;;;;;5015079;28;20025;-53
2022/12/24 09:24:19;;;;;;;27.98;18.92;;;;;;;;;;5015138;28;20034;-53
2022/12/24 09:26:48;;;;;;;21.63;17.25;;;;;;;;;;5012660;28;20033;-54
2022/12/24 09:29:15;;;;;;;28.67;21.20;;;;;;;;;;5012683;28;20038;-54
2022/12/24 09:31:41;;;;;;;26.08;19.13;;;;;;;;;;5012828;28;20056;-53
2022/12/24 09:34:07;;;;;;;28.20;22.15;;;;;;;;;;5012724;28;20065;-52
2022/12/24 09:36:33;;;;;;;26.35;21.13;;;13.70;99.90;;;;;;5012659;28;20096;-53
2022/12/24 09:38:59;;;;;;;42.40;27.88;;;13.90;99.90;;;;;;5012445;28;20030;-53
2022/12/24 09:41:28;;;;;;;31.90;20.90;;;14.00;99.90;;;;;;5012668;28;20042;-54
2022/12/24 09:44:00;;;;;;;18.38;13.43;;;14.10;99.90;;;;;;5012495;28;20440;-54
2022/12/24 09:46:39;;;;;;;16.60;12.80;;;14.10;99.90;;;;;;5012646;28;20437;-52
2022/12/24 09:49:12;;;;;;;25.13;17.42;;;14.10;99.90;;;;;;5012237;28;20034;-53
2022/12/24 09:51:50;;;;;;;16.67;12.20;;;14.10;99.90;;;;;;5012577;28;20552;-52
2022/12/24 09:54:16;;;;;;;19.13;13.95;;;14.00;99.90;;;;;;5012594;28;20087;-51
2022/12/24 09:56:47;;;;;;;19.95;15.48;;;14.00;99.90;;;;;;4979777;28;20436;-53
2022/12/24 09:59:21;;;;;;;34.40;24.30;;;14.00;99.90;;;;;;4979008;28;20504;-51
2022/12/24 10:01:49;;;;;;;19.48;15.93;;;14.00;99.90;;;;;;5014196;28;20500;-53
2022/12/24 10:04:18;;;;;;;22.02;14.60;;;14.00;99.90;;;;;;5014394;28;20037;-52
2022/12/24 10:06:50;;;;;;;76.70;46.88;;;14.00;99.90;;;;;;5014436;28;20096;-53
2022/12/24 10:09:37;;;;;;;106.30;61.30;;;14.00;99.90;;;;;;5014135;28;20036;-53
2022/12/24 10:12:20;;;;;;;18.20;13.25;;;14.10;99.90;;;;;;5013845;28;20580;-53
2022/12/24 10:15:00;;;;;;;19.58;14.30;;;14.10;99.90;;;;;;5014523;28;20478;-53
2022/12/24 10:17:42;;;;;;;21.55;17.92;;;14.20;99.90;;;;;;5013772;28;20489;-54
2022/12/24 10:20:38;;;;;;;23.88;20.92;;;14.60;99.90;;;;;;5014024;28;20168;-53
2022/12/24 10:23:14;;;;;;;24.33;19.52;;;14.50;99.90;;;;;;5013795;28;20401;-52
2022/12/24 10:25:50;;;;;;;27.27;19.58;;;14.40;99.90;;;;;;5028436;28;20050;-54
2022/12/24 10:28:20;;;;;;;59.10;49.08;;;14.20;99.90;;;;;;5014043;28;20048;-53
2022/12/24 10:30:57;;;;;;;25.73;20.77;;;14.20;99.90;;;;;;5013809;28;20034;-53
2022/12/24 10:33:42;;;;;;;23.10;18.38;;;14.20;99.90;;;;;;5013904;28;20096;-54
2022/12/24 10:36:19;;;;;;;28.08;19.60;;;14.30;99.90;;;;;;5013545;28;20041;-53
2022/12/24 10:38:46;;;;;;;28.70;21.30;;;14.30;99.90;;;;;;5013901;28;20033;-53
2022/12/24 10:41:13;;;;;;;23.63;18.55;;;14.20;99.90;;;;;;5013592;28;20112;-52
2022/12/24 10:43:41;;;;;;;24.35;17.15;;;14.40;99.90;;;;;;5028354;28;20049;-52
2022/12/24 10:46:32;;;;;;;20.67;17.15;;;14.40;99.90;;;;;;5013716;28;20037;-52
2022/12/24 10:49:01;;;;;;;24.67;20.42;;;14.40;99.90;;;;;;5010450;28;20141;-53
2022/12/24 10:51:37;;;;;;;30.80;23.33;;;14.40;99.90;;;;;;5011719;28;20050;-54
2022/12/24 10:54:12;;;;;;;27.30;22.08;;;14.30;99.90;;;;;;5011483;28;20050;-52
2022/12/24 10:56:49;;;;;;;40.00;27.90;;;14.20;99.90;;;;;;5013993;28;20091;-52
2022/12/24 10:59:39;;;;;;;24.05;18.95;;;14.00;99.90;;;;;;5013940;28;20026;-52
2022/12/24 11:02:31;;;;;;;22.70;18.80;;;13.80;99.90;;;;;;5013267;28;20492;-53
2022/12/24 11:05:00;;;;;;;28.35;22.08;;;13.60;99.90;;;;;;5009552;28;20397;-51
2022/12/24 11:07:29;;;;;;;53.08;36.13;;;13.50;99.90;;;;;;5011218;28;20046;-51
2022/12/24 11:10:06;;;;;;;44.17;30.05;;;13.70;99.90;;;;;;4995541;28;20045;-52
2022/12/24 11:12:36;;;;;;;44.75;31.27;;;13.70;99.90;;;;;;5015276;28;20038;-51
2022/12/24 11:15:17;;;;;;;39.40;27.48;;;13.60;99.90;;;;;;5015253;28;20390;-53
2022/12/24 11:18:12;;;;;;;34.22;26.02;;;13.80;99.90;;;;;;5015050;28;20062;-52
2022/12/24 11:20:38;;;;;;;50.30;28.00;;;13.60;99.90;;;;;;5014796;28;20069;-51
2022/12/24 11:23:04;;;;;;;35.45;26.33;;;13.70;99.90;;;;;;5015135;28;20038;-52
2022/12/24 11:25:39;;;;;;;36.97;27.38;;;13.60;99.90;;;;;;5015208;28;20132;-51
2022/12/24 11:28:17;;;;;;;54.17;42.50;;;13.60;99.90;;;;;;5015101;28;20073;-52
2022/12/24 11:31:02;;;;;;;72.20;52.47;;;13.60;99.90;;;;;;5014902;28;20045;-52
2022/12/24 11:33:29;;;;;;;96.63;73.70;;;13.40;99.90;;;;;;5014879;28;20038;-52
2022/12/24 11:36:05;;;;;;;79.47;59.40;;;13.40;99.90;;;;;;5015908;28;20046;-53
2022/12/24 11:38:33;;;;;;;92.50;63.53;;;13.30;99.90;;;;;;5017065;28;20030;-52
2022/12/24 11:41:00;;;;;;;94.35;67.25;;;13.20;99.90;;;;;;5017282;28;20030;-52
2022/12/24 11:43:43;;;;;;;94.95;67.05;;;13.20;99.90;;;;;;5017017;28;20377;-52
2022/12/24 11:46:43;;;;;;;83.22;56.50;;;13.20;99.90;;;;;;5016701;28;20058;-51
2022/12/24 11:49:11;;;;;;;82.35;60.05;;;13.30;99.90;;;;;;4992385;28;20081;-52
2022/12/24 11:52:06;;;;;;;90.07;62.08;;;13.30;99.90;;;;;;4995133;28;20130;-52
2022/12/24 11:54:51;;;;;;;75.50;53.47;;;13.10;99.90;;;;;;4994511;28;20050;-54
2022/12/24 11:57:23;;;;;;;67.93;50.50;;;13.10;99.90;;;;;;4995010;28;20034;-51
2022/12/24 11:59:51;;;;;;;77.80;55.05;;;13.10;99.90;;;;;;4994793;28;20053;-53
2022/12/24 12:02:22;;;;;;;82.88;57.03;;;13.10;99.90;;;;;;4994834;28;20041;-53
2022/12/24 12:04:56;;;;;;;70.85;50.60;;;13.60;99.90;;;;;;4994919;28;20181;-54
2022/12/24 12:07:27;;;;;;;77.55;56.00;;;13.60;99.90;;;;;;4994586;28;20136;-52
2022/12/24 12:10:03;;;;;;;103.95;71.85;;;13.50;99.90;;;;;;4994712;28;20049;-54
2022/12/24 12:12:35;;;;;;;79.03;55.17;;;13.60;99.90;;;;;;4962162;28;20136;-52
2022/12/24 12:15:12;;;;;;;64.03;45.90;;;13.70;99.90;;;;;;4994626;28;20414;-54
2022/12/24 12:17:46;;;;;;;56.42;41.17;;;13.80;99.90;;;;;;4955519;29;20521;-53
2022/12/24 12:20:12;;;;;;;61.70;45.00;;;13.90;99.90;;;;;;4923737;29;20043;-52
2022/12/24 12:23:07;;;;;;;73.40;51.90;;;14.00;99.90;;;;;;4954790;28;20054;-53
2022/12/24 12:25:43;;;;;;;35.75;28.58;;;13.80;99.90;;;;;;4962028;28;20137;-51
2022/12/24 12:28:35;;;;;;;27.63;22.58;;;14.00;99.90;;;;;;4975058;28;20043;-54
2022/12/24 12:31:12;;;;;;;31.67;24.15;;;13.70;99.90;;;;;;4974622;28;20054;-53
2022/12/24 12:33:45;;;;;;;29.60;22.85;;;14.10;99.90;;;;;;4974856;28;20046;-52
2022/12/24 12:36:13;;;;;;;115.80;95.60;;;14.10;99.90;;;;;;4974768;28;20117;-52
2022/12/24 12:38:39;;;;;;;28.60;20.83;;;13.70;99.90;;;;;;4974642;28;20042;-53
2022/12/24 12:41:22;;;;;;;28.67;21.02;;;13.80;99.90;;;;;;4974760;28;20043;-52
2022/12/24 12:44:03;;;;;;;24.95;20.45;;;13.80;99.90;;;;;;4974683;28;20498;-53
2022/12/24 12:46:40;;;;;;;28.35;19.92;;;13.80;99.90;;;;;;4974457;28;20041;-52
2022/12/24 12:49:48;;;;;;;23.10;16.13;;;13.80;99.90;;;;;;5005320;28;20037;-51
2022/12/24 12:52:47;;;;;;;24.27;17.75;;;13.70;99.90;;;;;;5015484;28;20504;-53
2022/12/24 12:55:32;;;;;;;17.52;12.18;;;13.70;99.90;;;;;;5015719;28;20022;-51
2022/12/24 12:58:07;;;;;;;14.52;10.65;;;13.70;99.90;;;;;;5015475;28;20038;-53
2022/12/24 13:00:38;;;;;;;23.02;13.40;;;13.70;99.90;;;;;;5015368;28;20037;-52